Time;durP1;ratioP1;P1;durP2;ratioP2;P2;SDS_P1;SDS_P2;PMS_P1;PMS_P2;Temp;Humidity;BMP_temperature;BMP_pressure;BME280_temperature;BME280_humidity;BME280_pressure;Samples;Min_cycle;Max_cycle;Signal;HPM_P1;HPM_P2
2021/11/19 11:21:28;;;;;;;1.05;0.57;;;;;;;16.21;60.48;103034.47;5044115;28;20809;-61
2021/11/19 11:24:02;;;;;;;0.20;0.20;;;;;;;16.25;60.61;103028.16;5034268;28;20079;-53
2021/11/19 11:26:44;;;;;;;0.50;0.30;;;;;;;16.31;60.40;103037.81;5046387;28;20078;-50
2021/11/19 11:29:09;;;;;;;0.50;0.32;;;;;;;16.33;60.35;103043.94;5047722;28;20112;-66
2021/11/19 11:31:45;;;;;;;1.98;0.90;;;;;;;16.40;60.26;103042.91;5046712;28;20048;-61
2021/11/19 11:47:03;;;;;;;3.80;1.40;;;;;;;15.03;66.16;103046.53;5107361;27;20397;-56
2021/11/19 11:49:28;;;;;;;7.05;1.73;;;;;;;15.38;62.89;103037.03;5093169;27;20032;-53
2021/11/19 11:52:19;;;;;;;4.50;1.52;;;;;;;15.79;61.11;103034.44;5098583;28;20034;-57
2021/11/19 11:55:09;;;;;;;6.43;1.63;;;;;;;16.19;59.97;103033.66;5096534;27;20160;-55
2021/11/19 11:57:52;;;;;;;8.98;1.80;;;;;;;16.54;58.68;103034.59;5123789;28;20386;-55
2021/11/19 12:00:41;;;;;;;5.43;1.50;;;;;;;16.76;58.01;103034.06;5120972;27;21617;-53
2021/11/19 12:03:36;;;;;;;6.78;1.60;;;;;;;16.93;57.16;103026.53;5106586;28;20035;-50
2021/11/19 12:06:17;;;;;;;5.03;1.50;;;;;;;17.02;56.65;103024.53;5125021;28;20035;-48
2021/11/19 12:09:30;;;;;;;6.05;1.55;;;;;;;17.10;56.32;103019.91;5127650;27;20098;-50
2021/11/19 12:12:33;;;;;;;5.25;1.25;;;;;;;17.15;56.00;103038.41;5101683;28;20047;-55
2021/11/19 12:15:20;;;;;;;3.70;1.00;;;;;;;17.17;55.22;103040.16;5101209;28;20100;-52
2021/11/19 12:17:48;;;;;;;9.40;2.13;;;;;;;17.20;55.38;103033.84;5107106;28;20024;-52
2021/11/19 12:20:35;;;;;;;4.03;1.17;;;;;;;17.22;55.21;103025.81;5127829;27;20053;-51
2021/11/19 12:23:26;;;;;;;8.13;1.50;;;;;;;17.25;54.92;103037.25;5127107;27;20026;-50
2021/11/19 12:26:07;;;;;;;4.40;1.50;;;;;;;17.28;54.85;103026.50;5120077;28;20102;-52
2021/11/19 12:28:37;;;;;;;2.88;1.20;;;;;;;17.32;54.58;103035.31;5109611;28;20084;-58
2021/11/19 12:31:10;;;;;;;3.95;1.27;;;;;;;17.39;54.44;103033.34;5126762;27;20038;-59
2021/11/19 12:33:40;;;;;;;1.80;0.93;;;;;;;17.43;54.21;103021.69;5125145;28;20073;-59
2021/11/19 12:36:14;;;;;;;3.97;1.52;;;;;;;17.45;54.23;103017.19;5118972;28;20016;-56
2021/11/19 12:38:44;;;;;;;3.78;1.10;;;;;;;17.46;54.09;103023.41;5106757;28;20036;-59
2021/11/19 12:41:25;;;;;;;4.95;1.17;;;;;;;17.50;53.94;103025.03;5116402;28;20106;-60
2021/11/19 12:44:12;;;;;;;2.70;1.30;;;;;;;17.52;54.10;103028.56;5132140;27;20038;-60
2021/11/19 12:46:47;;;;;;;4.75;1.23;;;;;;;17.49;54.18;103025.97;5113422;28;20027;-61
2021/11/19 12:49:43;;;;;;;5.30;1.08;;;;;;;17.48;54.01;103021.53;5112832;28;20112;-59
2021/11/19 12:52:10;;;;;;;3.13;1.13;;;;;;;17.46;53.61;103015.41;5112679;28;20020;-57
2021/11/19 12:54:57;;;;;;;3.22;1.02;;;;;;;17.45;53.65;103016.31;5106422;28;20017;-56
2021/11/19 12:57:37;;;;;;;4.10;1.10;;;;;;;17.39;53.67;103020.91;5095227;28;20024;-56
2021/11/19 13:00:04;;;;;;;2.78;0.95;;;;;;;17.38;53.99;103021.81;5092038;28;20031;-57
2021/11/19 13:02:42;;;;;;;5.28;1.30;;;;;;;17.40;53.72;103019.13;5109992;28;20027;-57
2021/11/19 13:05:07;;;;;;;3.77;1.20;;;;;;;17.40;53.63;103022.63;5112295;28;20054;-58
2021/11/19 13:07:43;;;;;;;5.03;1.00;;;;;;;17.42;53.81;103015.47;5111588;28;20313;-56
2021/11/19 13:10:14;;;;;;;3.28;1.05;;;;;;;17.46;53.57;103015.41;5111115;28;20023;-57
2021/11/19 13:13:03;;;;;;;3.45;1.20;;;;;;;17.52;53.44;103012.56;5111532;28;20019;-56
2021/11/19 13:15:49;;;;;;;6.03;1.10;;;;;;;17.58;53.34;103023.03;5093688;28;20044;-59
2021/11/19 13:18:14;;;;;;;3.35;1.08;;;;;;;17.60;53.21;103020.31;5109432;28;20038;-56
2021/11/19 13:20:49;;;;;;;5.03;1.00;;;;;;;17.64;53.05;103022.00;5112576;28;20375;-56
2021/11/19 13:23:43;;;;;;;3.78;1.00;;;;;;;17.71;52.98;103012.00;5112163;28;20390;-56
2021/11/19 13:26:12;;;;;;;4.50;1.20;;;;;;;17.74;52.99;103017.25;5111996;28;20051;-59
2021/11/19 13:28:54;;;;;;;7.35;1.05;;;;;;;17.73;52.85;103016.38;5112142;28;20039;-58
2021/11/19 13:31:19;;;;;;;4.80;1.08;;;;;;;17.77;52.63;103011.84;5112407;27;20111;-57
2021/11/19 13:34:03;;;;;;;4.10;1.27;;;;;;;17.83;52.76;103010.78;5110113;28;20110;-54
2021/11/19 13:36:44;;;;;;;4.40;1.25;;;;;;;17.98;51.98;103009.44;5111655;28;20085;-57
2021/11/19 13:39:12;;;;;;;3.97;0.85;;;;;;;18.18;51.69;102998.16;5111879;27;20084;-55
2021/11/19 13:41:42;;;;;;;5.00;1.40;;;;;;;18.37;51.04;103000.25;5110434;28;20038;-57
2021/11/19 13:44:17;;;;;;;3.20;1.00;;;;;;;18.56;50.29;103000.50;5111183;28;20628;-57
2021/11/19 13:46:52;;;;;;;7.40;1.65;;;;;;;18.82;49.92;102993.41;5109565;28;20063;-56
2021/11/19 13:49:59;;;;;;;5.00;1.30;;;;;;;19.10;48.87;102988.91;5095474;28;20059;-57
2021/11/19 13:52:30;;;;;;;5.40;1.33;;;;;;;19.53;48.04;102986.44;5070684;28;20484;-55
2021/11/19 13:55:16;;;;;;;6.20;1.15;;;;;;;20.02;46.86;102989.03;5090278;28;20052;-57
2021/11/19 13:57:44;;;;;;;2.97;1.27;;;;;;;20.48;45.71;102997.91;5092996;28;20032;-60
2021/11/19 14:00:17;;;;;;;3.00;1.00;;;;;;;20.82;44.84;102999.16;5099123;28;20027;-58
2021/11/19 14:02:42;;;;;;;3.13;1.13;;;;;;;20.78;44.26;102990.41;5097512;28;20019;-57
2021/11/19 14:05:41;;;;;;;3.85;1.42;;;;;;;20.47;45.14;103002.44;5098171;28;20480;-56
2021/11/19 14:08:12;;;;;;;3.10;0.98;;;;;;;20.07;45.71;102986.19;5109317;28;20483;-57
2021/11/19 14:11:00;;;;;;;4.05;0.98;;;;;;;19.77;46.79;102989.97;5100655;28;20016;-57
2021/11/19 14:13:39;;;;;;;3.85;0.90;;;;;;;19.66;47.23;103003.75;5095114;28;20104;-59
2021/11/19 14:16:12;;;;;;;5.00;1.17;;;;;;;19.72;47.52;103005.34;5102509;28;20022;-62
2021/11/19 14:18:57;;;;;;;5.68;1.00;;;;;;;19.78;47.30;102998.88;5107810;28;20058;-54
2021/11/19 14:28:28;;;;;;;3.30;1.00;;;;;;;17.65;50.34;103021.94;5100524;27;20447;-61
2021/11/19 14:30:56;;;;;;;3.55;1.30;;;;;;;16.41;54.60;103021.56;5093604;28;20502;-61
2021/11/19 14:33:36;;;;;;;4.55;1.50;;;;;;;15.45;57.26;103015.66;5082122;28;20016;-61
2021/11/19 14:36:17;;;;;;;7.40;1.27;;;;;;;14.74;59.95;103019.53;5095398;28;20047;-61
2021/11/19 14:38:46;;;;;;;11.95;1.85;;;;;;;14.21;61.79;103014.19;5098744;28;20393;-61
2021/11/19 14:41:30;;;;;;;6.15;1.73;;;;;;;13.96;62.88;103020.69;5119643;27;21793;-61
2021/11/19 14:44:44;;;;;;;6.13;1.33;;;;;;;13.81;63.86;103021.75;5078350;28;20387;-61
2021/11/19 14:47:13;;;;;;;2.53;1.10;;;;;;;13.65;64.44;103026.38;5033577;28;20041;-62
2021/11/19 14:49:56;;;;;;;5.68;1.52;;;;;;;13.57;64.62;103021.16;5056964;28;20554;-62
2021/11/19 14:52:26;;;;;;;5.00;1.48;;;;;;;13.43;64.54;103023.06;5078154;28;20012;-61
2021/11/19 14:54:54;;;;;;;8.68;1.67;;;;;;;13.33;65.00;103017.84;5076501;28;20441;-60
2021/11/19 14:57:41;;;;;;;6.78;1.63;;;;;;;13.17;66.12;103027.72;5063374;28;20467;-62
2021/11/19 15:00:11;;;;;;;12.90;1.65;;;;;;;13.10;66.64;103029.53;5077400;28;20032;-61
2021/11/19 15:02:41;;;;;;;2.60;1.52;;;;;;;13.04;66.89;103029.63;5079196;28;20049;-60
2021/11/19 15:05:18;;;;;;;3.38;1.42;;;;;;;12.96;67.27;103013.81;5079223;28;20157;-61
2021/11/19 15:07:47;;;;;;;10.48;1.95;;;;;;;12.83;67.78;103012.16;5113111;27;20039;-61
2021/11/19 15:10:25;;;;;;;9.30;1.83;;;;;;;12.74;67.93;103021.91;5079347;28;20034;-61
2021/11/19 15:12:53;;;;;;;8.57;1.63;;;;;;;12.67;68.28;103029.94;5080719;28;20028;-60
2021/11/19 15:15:27;;;;;;;9.30;1.98;;;;;;;12.61;68.23;103030.84;5076506;28;20367;-61
2021/11/19 15:18:14;;;;;;;9.25;2.20;;;;;;;12.48;68.94;103019.47;5079517;28;20027;-61
2021/11/19 15:20:43;;;;;;;3.20;1.55;;;;;;;12.42;68.67;103012.47;5065373;28;20037;-61
2021/11/19 15:23:31;;;;;;;7.45;2.10;;;;;;;12.28;69.56;103015.19;5059639;28;20024;-61
2021/11/19 15:25:57;;;;;;;6.40;1.67;;;;;;;12.23;69.58;103012.59;5074420;28;20038;-61
2021/11/19 15:28:37;;;;;;;4.95;1.85;;;;;;;12.12;70.09;103014.41;5068396;28;20106;-64
2021/11/19 15:31:19;;;;;;;6.57;2.20;;;;;;;12.07;70.63;103021.50;5075203;28;20039;-61
2021/11/19 15:33:59;;;;;;;10.05;2.03;;;;;;;11.99;70.78;103022.38;5083797;28;20036;-64
2021/11/19 15:36:32;;;;;;;10.20;2.22;;;;;;;11.91;71.42;103023.28;5095520;28;20082;-65
2021/11/19 15:38:58;;;;;;;6.32;1.50;;;;;;;11.86;71.37;103020.69;5084765;28;20123;-61
2021/11/19 15:41:27;;;;;;;5.80;1.80;;;;;;;11.81;71.46;103017.16;5084677;28;20086;-64
2021/11/19 15:43:56;;;;;;;;;;;;;;;11.71;72.16;103026.91;5087683;28;20027;-64
2021/11/19 15:46:29;;;;;;;4.25;2.20;;;;;;;11.67;71.80;103026.03;5086956;28;19912;-60
2021/11/19 15:48:59;;;;;;;7.28;2.00;;;;;;;11.62;72.23;103025.16;5085756;28;20065;-62
2021/11/19 15:51:30;;;;;;;4.35;1.63;;;;;;;11.57;72.35;103027.81;5087750;28;20441;-60
2021/11/19 15:54:19;;;;;;;10.30;2.38;;;;;;;11.50;72.50;103031.38;5087906;28;20024;-61
2021/11/19 15:56:48;;;;;;;8.95;2.58;;;;;;;11.44;72.69;103024.31;5119576;27;20020;-61
2021/11/19 15:59:42;;;;;;;10.48;3.70;;;;;;;11.39;73.55;103023.47;5087578;28;20036;-63
2021/11/19 16:02:19;;;;;;;8.00;3.60;;;;;;;11.34;73.66;103028.75;5055369;28;20036;-60
2021/11/19 16:05:18;;;;;;;8.15;3.15;;;;;;;11.30;73.53;103037.56;5080188;28;20028;-60
2021/11/19 16:07:49;;;;;;;11.68;3.35;;;;;;;11.23;74.06;103046.38;5086109;28;20035;-63
2021/11/19 16:10:27;;;;;;;10.25;3.53;;;;;;;11.19;73.91;103041.94;5086053;28;20016;-61
2021/11/19 16:13:02;;;;;;;8.57;3.88;;;;;;;11.14;74.23;103041.09;5081138;28;20058;-63
2021/11/19 16:15:28;;;;;;;9.73;3.55;;;;;;;11.10;74.53;103046.38;5087257;28;20122;-61
2021/11/19 16:17:53;;;;;;;10.95;3.95;;;;;;;11.04;74.71;103045.47;5085759;28;20051;-61
2021/11/19 16:20:19;;;;;;;11.23;3.35;;;;;;;11.00;75.17;103049.91;5086929;28;20039;-60
2021/11/19 16:22:45;;;;;;;10.13;4.43;;;;;;;10.96;75.55;103056.06;5085768;28;20028;-61
2021/11/19 16:25:12;;;;;;;12.82;3.65;;;;;;;10.90;75.53;103054.31;5087095;28;20030;-64
2021/11/19 16:27:39;;;;;;;14.43;4.20;;;;;;;10.86;75.68;103053.41;5075219;28;20036;-61
2021/11/19 16:30:13;;;;;;;10.57;4.05;;;;;;;10.83;75.75;103042.84;5068279;28;20553;-60
2021/11/19 16:32:39;;;;;;;9.55;3.90;;;;;;;10.78;76.27;103034.09;5066003;28;20086;-61
2021/11/19 16:35:11;;;;;;;8.55;3.42;;;;;;;10.77;76.14;103032.31;5105351;27;20020;-61
2021/11/19 16:37:36;;;;;;;7.90;3.47;;;;;;;10.71;76.36;103035.81;5083339;28;20455;-60
2021/11/19 16:40:04;;;;;;;6.95;3.67;;;;;;;10.67;76.45;103041.09;5086666;28;20088;-62
2021/11/19 16:42:29;;;;;;;13.35;3.53;;;;;;;10.65;76.51;103042.84;5087093;28;20397;-61
2021/11/19 16:44:55;;;;;;;14.30;3.75;;;;;;;10.61;76.86;103048.13;5085229;28;20028;-61
2021/11/19 16:47:24;;;;;;;9.55;3.38;;;;;;;10.58;77.23;103042.84;5087289;28;20533;-61
2021/11/19 16:49:50;;;;;;;17.67;4.47;;;;;;;10.55;77.33;103041.94;5078118;28;20442;-60
2021/11/19 16:52:20;;;;;;;12.63;3.88;;;;;;;10.49;77.34;103048.97;5066999;28;20096;-61
2021/11/19 16:54:50;;;;;;;13.45;5.25;;;;;;;10.47;77.47;103044.56;5073640;28;20382;-60
2021/11/19 16:57:16;;;;;;;12.85;4.03;;;;;;;10.43;77.69;103042.75;5087358;28;20394;-60
2021/11/19 16:59:42;;;;;;;10.38;4.25;;;;;;;10.41;78.17;103050.66;5115893;27;20425;-60
2021/11/19 17:02:09;;;;;;;9.18;3.63;;;;;;;10.38;77.87;103055.94;5087044;28;20020;-60
2021/11/19 17:04:35;;;;;;;12.75;5.55;;;;;;;10.33;78.42;103048.00;5085915;28;20103;-61
2021/11/19 17:07:01;;;;;;;12.95;5.60;;;;;;;10.32;78.62;103054.16;5118638;27;20064;-61
2021/11/19 17:09:27;;;;;;;13.90;5.07;;;;;;;10.31;78.92;103047.16;5075728;28;20027;-62
2021/11/19 17:11:53;;;;;;;21.45;7.00;;;;;;;10.25;79.02;103044.50;5087950;28;20064;-61
2021/11/19 17:14:20;;;;;;;21.58;7.90;;;;;;;10.20;79.14;103041.84;5087965;28;20028;-61
2021/11/19 17:16:47;;;;;;;12.30;6.35;;;;;;;10.19;79.09;103044.47;5087382;28;20340;-60
2021/11/19 17:19:13;;;;;;;13.07;6.32;;;;;;;10.17;79.43;103046.22;5088034;28;20065;-61
2021/11/19 17:21:40;;;;;;;12.73;6.03;;;;;;;10.14;79.44;103048.84;5087766;28;20099;-61
2021/11/19 17:24:07;;;;;;;13.88;6.55;;;;;;;10.10;79.50;103056.75;5087538;28;20024;-61
2021/11/19 17:26:35;;;;;;;12.80;5.88;;;;;;;10.10;79.51;103053.22;5087508;28;20047;-62
2021/11/19 17:29:02;;;;;;;21.63;6.20;;;;;;;10.08;79.66;103052.31;5087968;28;20020;-61
2021/11/19 17:31:28;;;;;;;13.70;5.68;;;;;;;10.06;79.92;103047.03;5086923;28;20035;-61
2021/11/19 17:33:54;;;;;;;19.30;5.75;;;;;;;10.06;79.55;103054.09;5120487;27;20067;-61
2021/11/19 17:36:25;;;;;;;11.38;5.90;;;;;;;10.03;79.61;103059.34;5088158;28;20541;-61
2021/11/19 17:38:52;;;;;;;17.27;6.60;;;;;;;9.98;79.55;103060.22;5087419;28;20024;-60
2021/11/19 17:41:19;;;;;;;11.25;6.47;;;;;;;9.96;79.83;103059.31;5087892;28;20680;-60
2021/11/19 17:43:45;;;;;;;11.48;6.20;;;;;;;9.92;79.93;103059.28;5087770;28;20024;-60
2021/11/19 17:46:19;;;;;;;12.40;5.30;;;;;;;9.86;80.24;103063.66;5083337;28;20470;-58
2021/11/19 17:48:46;;;;;;;10.65;5.68;;;;;;;9.83;80.52;103066.28;5066496;28;20123;-59
2021/11/19 17:51:14;;;;;;;11.27;6.28;;;;;;;9.82;80.39;103075.03;5066661;28;20024;-60
2021/11/19 17:53:45;;;;;;;10.90;6.47;;;;;;;9.81;80.38;103077.69;5066710;28;20111;-59
2021/11/19 17:56:11;;;;;;;15.23;6.13;;;;;;;9.79;80.88;103077.66;5066554;28;20479;-60
2021/11/19 17:58:37;;;;;;;17.17;7.15;;;;;;;9.81;80.50;103085.59;5066005;28;20432;-60
2021/11/19 18:01:03;;;;;;;17.48;6.93;;;;;;;9.80;80.75;103083.78;5076332;28;20016;-60
2021/11/19 18:03:29;;;;;;;14.98;7.10;;;;;;;9.75;80.84;103065.34;5086396;28;20035;-60
2021/11/19 18:05:56;;;;;;;20.58;7.72;;;;;;;9.74;80.91;103074.13;5086569;28;20382;-60
2021/11/19 18:08:23;;;;;;;10.55;5.50;;;;;;;9.71;80.76;103075.00;5086568;28;20024;-59
2021/11/19 18:10:51;;;;;;;16.05;6.35;;;;;;;9.68;80.75;103076.72;5087547;28;20047;-61
2021/11/19 18:13:17;;;;;;;11.18;6.15;;;;;;;9.67;81.04;103085.50;5087402;28;20505;-61
2021/11/19 18:15:43;;;;;;;15.20;6.43;;;;;;;9.66;81.10;103087.22;5086968;28;20099;-61
2021/11/19 18:18:08;;;;;;;9.65;4.90;;;;;;;9.65;81.25;103090.75;5118504;27;20108;-61
2021/11/19 18:20:51;;;;;;;17.70;7.38;;;;;;;9.64;81.41;103093.38;5087036;28;20020;-61
2021/11/19 18:23:17;;;;;;;13.45;6.72;;;;;;;9.62;80.98;103085.47;5086943;28;20032;-61
2021/11/19 18:25:43;;;;;;;20.67;6.78;;;;;;;9.63;81.07;103078.44;5087198;28;20032;-60
2021/11/19 18:28:08;;;;;;;12.95;5.75;;;;;;;9.63;80.95;103083.72;5086751;28;20024;-61
2021/11/19 18:30:50;;;;;;;15.98;7.43;;;;;;;9.61;81.02;103089.81;5086670;28;20028;-59
2021/11/19 18:33:15;;;;;;;20.65;7.28;;;;;;;9.59;81.07;103094.22;5085803;28;20023;-61
2021/11/19 18:35:41;;;;;;;21.13;8.27;;;;;;;9.59;81.29;103103.84;5086740;28;20507;-58
2021/11/19 18:38:13;;;;;;;9.35;4.90;;;;;;;9.60;80.91;103116.13;5086419;28;20070;-61
2021/11/19 18:40:52;;;;;;;15.52;5.72;;;;;;;9.64;80.99;103117.06;5086967;28;20562;-58
2021/11/19 18:43:19;;;;;;;14.68;4.65;;;;;;;9.70;80.66;103109.19;5086916;28;20132;-61
2021/11/19 18:45:46;;;;;;;12.48;4.45;;;;;;;9.75;80.73;103102.19;5086670;28;20032;-60
2021/11/19 18:48:14;;;;;;;14.13;4.90;;;;;;;9.80;80.66;103095.22;5085975;28;20036;-59
2021/11/19 18:50:39;;;;;;;16.83;5.38;;;;;;;9.83;80.56;103102.25;5087023;28;20032;-59
2021/11/19 18:53:09;;;;;;;12.30;5.50;;;;;;;9.86;80.41;103111.06;5086249;28;20031;-61
2021/11/19 18:55:34;;;;;;;;;;;;;;;9.89;80.13;103109.28;5087194;28;20024;-59
2021/11/19 18:58:00;;;;;;;15.77;5.47;;;;;;;9.90;80.09;103111.09;5085914;28;19920;-61
2021/11/19 19:00:43;;;;;;;10.75;4.53;;;;;;;9.94;80.07;103118.13;5085035;28;20027;-61
2021/11/19 19:03:09;;;;;;;10.90;4.40;;;;;;;9.97;79.92;103121.63;5084741;28;20024;-60
2021/11/19 19:05:36;;;;;;;9.52;4.78;;;;;;;9.99;79.89;103113.75;5086145;28;20031;-59
2021/11/19 19:08:07;;;;;;;15.18;4.25;;;;;;;10.00;80.01;103110.25;5085792;28;20060;-60
2021/11/19 19:10:38;;;;;;;14.27;5.15;;;;;;;10.02;79.80;103115.53;5086350;28;20035;-58
2021/11/19 19:13:04;;;;;;;16.50;4.47;;;;;;;10.01;80.25;103125.19;5086960;28;20055;-62
2021/11/19 19:15:33;;;;;;;9.43;4.40;;;;;;;10.05;80.08;103126.94;5090072;28;20043;-59
2021/11/19 19:17:58;;;;;;;9.67;5.03;;;;;;;10.07;79.95;103127.84;5089551;28;20114;-60
2021/11/19 19:20:32;;;;;;;14.30;5.28;;;;;;;10.11;80.18;103126.09;5089445;28;20140;-59
2021/11/19 19:23:02;;;;;;;10.57;5.03;;;;;;;10.10;80.21;103119.97;5088450;28;20070;-59
2021/11/19 19:25:28;;;;;;;22.15;4.80;;;;;;;10.11;79.85;103108.53;5089312;28;20436;-60
2021/11/19 19:27:55;;;;;;;9.15;4.50;;;;;;;10.13;79.87;103100.66;5089024;28;20044;-60
2021/11/19 19:30:35;;;;;;;13.18;4.35;;;;;;;10.16;80.04;103107.69;5080338;28;20032;-59
2021/11/19 19:33:03;;;;;;;7.00;3.75;;;;;;;10.18;79.72;103112.06;5088193;28;20516;-59
2021/11/19 19:35:39;;;;;;;11.57;4.70;;;;;;;10.18;79.64;103116.47;5089885;28;20115;-59
2021/11/19 19:38:14;;;;;;;10.48;4.70;;;;;;;10.20;79.75;103120.88;5119674;27;20493;-59
2021/11/19 19:40:43;;;;;;;10.48;4.32;;;;;;;10.24;79.57;103111.25;5090149;28;20390;-59
2021/11/19 19:43:10;;;;;;;;;;;;;;;10.26;79.54;103103.34;5089914;28;20048;-59
2021/11/19 19:45:38;;;;;;;10.02;5.03;;;;;;;10.25;79.27;103097.19;5089450;28;19919;-61
2021/11/19 19:48:10;;;;;;;11.77;4.55;;;;;;;10.29;79.41;103092.81;5088987;28;20077;-59
2021/11/19 19:50:40;;;;;;;8.80;3.67;;;;;;;10.29;79.33;103104.22;5089666;28;20024;-59
2021/11/19 19:53:06;;;;;;;15.07;4.90;;;;;;;10.29;79.43;103109.50;5088998;28;20052;-59
2021/11/19 19:55:35;;;;;;;13.88;4.80;;;;;;;10.29;79.18;103109.50;5089591;28;20056;-59
2021/11/19 19:58:02;;;;;;;8.65;4.00;;;;;;;10.32;79.23;103119.16;5089024;28;20490;-60
2021/11/19 20:00:27;;;;;;;9.43;3.92;;;;;;;10.33;79.10;103116.53;5089091;28;20032;-60
2021/11/19 20:02:53;;;;;;;11.15;3.83;;;;;;;10.35;78.52;103112.16;5088359;28;20016;-60
2021/11/19 20:05:21;;;;;;;9.45;3.55;;;;;;;10.38;78.72;103115.69;5089401;28;20077;-60
2021/11/19 20:07:47;;;;;;;7.88;2.95;;;;;;;10.38;78.73;103108.63;5089045;28;20031;-59
2021/11/19 20:10:15;;;;;;;6.30;3.78;;;;;;;10.38;78.34;103108.63;5088819;28;20024;-60
2021/11/19 20:12:41;;;;;;;14.55;4.07;;;;;;;10.38;78.55;103119.19;5089413;28;20500;-60
2021/11/19 20:15:16;;;;;;;10.48;4.25;;;;;;;10.35;78.38;103125.31;5088703;28;20023;-61
2021/11/19 20:17:41;;;;;;;11.75;3.65;;;;;;;10.41;78.34;103123.59;5088497;28;20043;-60
2021/11/19 20:20:11;;;;;;;6.93;3.38;;;;;;;10.43;78.42;103114.81;5088881;28;20020;-59
2021/11/19 20:22:36;;;;;;;7.63;3.40;;;;;;;10.43;78.36;103111.28;5088473;28;20600;-60
2021/11/19 20:25:03;;;;;;;7.70;4.28;;;;;;;10.42;78.43;103102.50;5088736;28;20036;-60
2021/11/19 20:27:30;;;;;;;11.43;4.00;;;;;;;10.42;78.75;103117.44;5088396;28;20617;-60
2021/11/19 20:29:57;;;;;;;8.75;3.90;;;;;;;10.42;78.56;103114.81;5088171;28;20039;-60
2021/11/19 20:32:31;;;;;;;14.52;4.70;;;;;;;10.42;78.42;103126.22;5088047;28;20355;-59
2021/11/19 20:34:57;;;;;;;7.78;3.80;;;;;;;10.44;78.31;103129.75;5088504;28;20031;-59
2021/11/19 20:37:24;;;;;;;6.47;3.40;;;;;;;10.45;78.40;103122.72;5087991;28;20093;-59
2021/11/19 20:39:51;;;;;;;8.20;3.30;;;;;;;10.49;78.10;103127.16;5089010;28;20097;-60
2021/11/19 20:42:20;;;;;;;11.27;4.53;;;;;;;10.45;78.03;103115.72;5089080;28;20031;-60
2021/11/19 20:44:48;;;;;;;5.78;4.05;;;;;;;10.44;78.39;103113.03;5088005;28;20020;-61
2021/11/19 20:47:14;;;;;;;7.53;4.30;;;;;;;10.46;78.04;103116.59;5087185;28;20019;-60
2021/11/19 20:49:41;;;;;;;9.25;3.97;;;;;;;10.48;77.94;103120.16;5088615;28;20363;-59
2021/11/19 20:52:10;;;;;;;9.93;4.03;;;;;;;10.46;77.73;103116.59;5086567;28;20024;-60
2021/11/19 20:54:37;;;;;;;7.18;4.18;;;;;;;10.48;77.99;103117.50;5088454;28;20035;-60
2021/11/19 20:57:05;;;;;;;5.25;3.90;;;;;;;10.46;77.90;103119.25;5088500;28;20119;-59
2021/11/19 20:59:31;;;;;;;10.13;4.00;;;;;;;10.47;77.99;103113.97;5087785;28;20086;-59
2021/11/19 21:02:07;;;;;;;9.05;4.72;;;;;;;10.48;77.75;103102.56;5087359;28;20043;-60
2021/11/19 21:04:33;;;;;;;14.38;5.70;;;;;;;10.48;77.79;103093.78;5088120;28;20486;-60
2021/11/19 21:07:01;;;;;;;6.13;3.47;;;;;;;10.46;77.73;103098.16;5087342;28;20119;-59
2021/11/19 21:09:26;;;;;;;10.27;4.00;;;;;;;10.45;77.89;103109.56;5081536;28;20365;-59
2021/11/19 21:11:58;;;;;;;7.18;3.75;;;;;;;10.47;78.01;103106.06;5069379;28;20111;-59
2021/11/19 21:14:26;;;;;;;12.23;4.40;;;;;;;10.46;78.11;103116.59;5067012;28;20021;-60
2021/11/19 21:16:52;;;;;;;8.63;4.28;;;;;;;10.46;77.52;103100.78;5066023;28;20510;-60
2021/11/19 21:19:18;;;;;;;9.05;4.35;;;;;;;10.47;77.57;103092.00;5069702;28;20020;-60
2021/11/19 21:21:45;;;;;;;11.65;5.38;;;;;;;10.49;77.77;103090.25;5087009;28;20039;-61
2021/11/19 21:24:11;;;;;;;7.38;4.47;;;;;;;10.49;77.90;103095.53;5085360;28;20028;-60
2021/11/19 21:26:43;;;;;;;11.02;4.55;;;;;;;10.49;77.72;103100.81;5087635;28;20040;-60
2021/11/19 21:29:10;;;;;;;7.95;4.47;;;;;;;10.49;77.65;103098.16;5086479;28;20031;-59
2021/11/19 21:31:40;;;;;;;6.50;3.85;;;;;;;10.49;77.60;103091.16;5086723;28;20028;-60
2021/11/19 21:34:08;;;;;;;13.75;5.30;;;;;;;10.51;77.73;103083.25;5087559;28;20032;-60
2021/11/19 21:36:35;;;;;;;9.20;4.80;;;;;;;10.49;77.83;103091.16;5085695;28;20496;-60
2021/11/19 21:39:00;;;;;;;8.23;4.78;;;;;;;10.49;77.65;103080.63;5086295;28;20030;-60
2021/11/19 21:41:29;;;;;;;9.15;4.47;;;;;;;10.50;77.43;103086.75;5074661;28;20016;-59
2021/11/19 21:43:56;;;;;;;9.32;4.57;;;;;;;10.53;77.36;103089.38;5066372;28;20035;-60
2021/11/19 21:46:24;;;;;;;5.85;3.47;;;;;;;10.56;77.23;103080.59;5065502;28;20025;-60
2021/11/19 21:48:51;;;;;;;9.02;4.43;;;;;;;10.54;77.48;103077.97;5067637;28;20063;-60
2021/11/19 21:51:32;;;;;;;6.35;4.30;;;;;;;10.55;77.49;103074.47;5108647;27;20028;-60
2021/11/19 21:54:20;;;;;;;7.22;4.20;;;;;;;10.52;77.50;103069.19;5120079;27;20039;-59
2021/11/19 21:56:50;;;;;;;12.52;4.55;;;;;;;10.49;77.82;103079.72;5086778;28;20398;-60
2021/11/19 21:59:19;;;;;;;11.30;5.07;;;;;;;10.52;77.57;103081.47;5076346;28;20058;-58
2021/11/19 22:01:48;;;;;;;7.45;4.40;;;;;;;10.52;77.30;103079.72;5066131;28;20024;-59
2021/11/19 22:04:17;;;;;;;11.07;3.45;;;;;;;10.55;77.19;103079.75;5064502;28;20085;-59
2021/11/19 22:06:47;;;;;;;10.38;4.40;;;;;;;10.52;77.28;103084.13;5065446;28;20545;-60
2021/11/19 22:09:14;;;;;;;6.00;4.03;;;;;;;10.52;76.95;103084.13;5064140;28;20502;-59
2021/11/19 22:11:40;;;;;;;6.15;3.85;;;;;;;10.51;77.48;103093.78;5079595;28;20035;-59
2021/11/19 22:14:07;;;;;;;11.32;4.13;;;;;;;10.51;77.18;103080.63;5085821;28;20497;-59
2021/11/19 22:16:32;;;;;;;7.88;4.00;;;;;;;10.52;77.40;103078.84;5084010;28;20060;-60
2021/11/19 22:19:01;;;;;;;8.75;4.38;;;;;;;10.52;77.27;103078.84;5083097;28;20052;-60
2021/11/19 22:21:56;;;;;;;8.00;4.07;;;;;;;10.51;77.17;103067.44;5065274;28;20031;-60
2021/11/19 22:24:21;;;;;;;13.00;4.80;;;;;;;10.49;77.14;103069.19;5068326;28;20385;-60
2021/11/19 22:26:47;;;;;;;5.32;3.55;;;;;;;10.50;77.63;103073.56;5085370;28;20048;-60
2021/11/19 22:29:13;;;;;;;13.90;4.53;;;;;;;10.50;77.41;103070.94;5085013;28;20039;-60
2021/11/19 22:31:49;;;;;;;7.35;4.55;;;;;;;10.49;77.60;103062.16;5085414;28;20058;-60
2021/11/19 22:34:16;;;;;;;6.20;4.32;;;;;;;10.52;77.35;103074.47;5083296;28;20058;-60
2021/11/19 22:36:44;;;;;;;10.23;3.90;;;;;;;10.52;77.64;103073.56;5075913;28;20099;-60
2021/11/19 22:39:15;;;;;;;12.23;4.60;;;;;;;10.52;77.33;103073.56;5067172;28;20550;-60
2021/11/19 22:41:45;;;;;;;7.47;4.35;;;;;;;10.51;77.56;103056.00;5085406;28;20016;-60
2021/11/19 22:44:11;;;;;;;8.05;4.57;;;;;;;10.52;77.28;103058.63;5081820;28;20474;-60
2021/11/19 22:46:36;;;;;;;10.27;4.32;;;;;;;10.51;77.42;103056.91;5065548;28;20025;-59
2021/11/19 22:49:04;;;;;;;7.82;5.03;;;;;;;10.48;77.50;103057.75;5067516;28;20052;-59
2021/11/19 22:51:34;;;;;;;8.55;4.40;;;;;;;10.50;77.49;103055.09;5089415;28;20028;-59
2021/11/19 22:54:01;;;;;;;6.18;4.57;;;;;;;10.51;77.24;103061.28;5089400;28;20024;-59
2021/11/19 22:56:29;;;;;;;10.98;4.93;;;;;;;10.52;77.17;103060.38;5072175;28;20035;-60
2021/11/19 22:58:56;;;;;;;12.35;6.22;;;;;;;10.51;77.18;103056.91;5069003;28;20023;-60
2021/11/19 23:01:29;;;;;;;10.05;4.50;;;;;;;10.51;77.37;103050.72;5073010;28;20128;-62
2021/11/19 23:03:57;;;;;;;11.43;5.90;;;;;;;10.50;77.75;103047.19;5077348;28;20031;-59
2021/11/19 23:06:23;;;;;;;7.70;4.72;;;;;;;10.51;77.64;103056.91;5068777;28;20099;-62
2021/11/19 23:08:50;;;;;;;7.43;4.57;;;;;;;10.49;77.26;103053.38;5075271;28;20054;-62
2021/11/19 23:11:22;;;;;;;11.65;4.50;;;;;;;10.50;77.56;103055.09;5090140;28;20111;-61
2021/11/19 23:13:52;;;;;;;17.63;5.55;;;;;;;10.52;77.46;103057.75;5085555;28;20036;-60
2021/11/19 23:16:19;;;;;;;;;;;;;;;10.51;77.64;103051.63;5072021;28;20060;-59
2021/11/19 23:18:45;;;;;;;6.30;5.00;;;;;;;10.52;77.05;103049.84;5084357;28;19912;-61
2021/11/19 23:21:19;;;;;;;11.43;5.03;;;;;;;10.49;77.83;103048.97;5070275;28;20628;-60
2021/11/19 23:23:45;;;;;;;10.07;4.28;;;;;;;10.50;77.64;103044.56;5068343;28;20471;-60
2021/11/19 23:26:12;;;;;;;12.45;4.80;;;;;;;10.50;77.42;103049.84;5067871;28;20020;-60